createdAt,value
2018-12-10T00:00:49.872Z,65.60
2018-12-10T00:05:53.093Z,65.40
2018-12-10T00:10:56.320Z,65.10
2018-12-10T00:15:59.526Z,65.20
2018-12-10T00:21:02.728Z,65.00
2018-12-10T00:26:05.926Z,65.10
2018-12-10T00:31:09.143Z,65.30
2018-12-10T00:36:13.045Z,65.40
2018-12-10T00:41:16.269Z,65.20
2018-12-10T00:46:19.439Z,65.30
2018-12-10T00:51:22.633Z,65.20
2018-12-10T00:56:25.873Z,64.90
2018-12-10T01:01:29.077Z,65.00
2018-12-10T01:06:32.261Z,65.30
2018-12-10T01:11:35.451Z,64.80
2018-12-10T01:16:38.681Z,64.70
2018-12-10T01:21:41.870Z,65.00
2018-12-10T01:26:45.245Z,64.60
2018-12-10T01:31:48.437Z,64.80
2018-12-10T01:36:51.664Z,65.10
2018-12-10T01:41:54.921Z,65.10
2018-12-10T01:46:58.125Z,64.70
2018-12-10T01:52:01.499Z,64.60
2018-12-10T01:57:04.726Z,64.60
2018-12-10T02:02:07.963Z,64.70
2018-12-10T02:07:11.410Z,64.80
2018-12-10T02:12:14.620Z,64.40
2018-12-10T02:17:17.814Z,64.10
2018-12-10T02:22:21.250Z,64.30
2018-12-10T02:27:24.456Z,64.10
2018-12-10T02:32:27.661Z,63.70
2018-12-10T02:37:31.005Z,64.30
2018-12-10T02:42:34.235Z,64.10
2018-12-10T02:47:37.494Z,63.60
2018-12-10T02:52:40.809Z,64.00
2018-12-10T02:57:44.348Z,63.70
2018-12-10T03:02:47.569Z,63.70
2018-12-10T03:07:50.815Z,63.90
2018-12-10T03:12:54.027Z,63.60
2018-12-10T03:17:57.273Z,63.80
2018-12-10T03:23:00.498Z,63.90
2018-12-10T03:28:03.758Z,63.60
2018-12-10T03:33:06.942Z,63.80
2018-12-10T03:38:10.168Z,63.90
2018-12-10T03:43:13.734Z,63.50
2018-12-10T03:48:16.968Z,63.80
2018-12-10T03:53:20.192Z,63.90
2018-12-10T03:58:23.386Z,63.90
2018-12-10T04:03:26.578Z,64.00
2018-12-10T04:08:30.023Z,64.00
2018-12-10T04:13:33.260Z,63.50
2018-12-10T04:18:36.434Z,63.50
2018-12-10T04:23:39.639Z,63.50
2018-12-10T04:28:42.847Z,63.20
2018-12-10T04:33:46.072Z,64.30
2018-12-10T04:38:49.287Z,63.80
2018-12-10T04:43:52.513Z,63.30
2018-12-10T04:48:55.886Z,63.40
2018-12-10T04:53:59.122Z,63.30
2018-12-10T04:59:02.413Z,63.30
2018-12-10T05:04:05.663Z,63.40
2018-12-10T05:09:08.906Z,62.70
2018-12-10T05:14:12.466Z,63.30
2018-12-10T05:19:15.705Z,63.00
2018-12-10T05:24:18.953Z,62.80
2018-12-10T05:29:22.390Z,63.00
2018-12-10T05:34:25.586Z,63.20
2018-12-10T05:39:28.904Z,63.00
2018-12-10T05:44:32.092Z,62.80
2018-12-10T05:49:35.377Z,63.00
2018-12-10T05:54:38.570Z,62.90
2018-12-10T05:59:41.802Z,63.00
2018-12-10T06:04:45.035Z,62.60
2018-12-10T06:09:48.240Z,62.70
2018-12-10T06:14:51.528Z,62.70
2018-12-10T06:19:54.710Z,62.70
2018-12-10T06:24:58.068Z,62.30
2018-12-10T06:30:01.330Z,62.50
2018-12-10T06:35:04.800Z,62.10
2018-12-10T06:40:07.991Z,61.90
2018-12-10T06:45:11.522Z,61.90
2018-12-10T06:50:14.971Z,62.10
2018-12-10T06:55:18.182Z,61.90
2018-12-10T07:00:21.492Z,61.90
2018-12-10T07:05:25.842Z,61.70
2018-12-10T07:10:29.340Z,61.80
2018-12-10T07:15:33.540Z,61.60
2018-12-10T07:20:37.199Z,61.40
2018-12-10T07:25:40.658Z,61.50
2018-12-10T07:30:43.925Z,61.10
2018-12-10T07:35:47.643Z,61.10
2018-12-10T07:40:50.874Z,61.40
2018-12-10T07:45:54.183Z,61.80
2018-12-10T07:50:57.477Z,61.90
2018-12-10T07:56:00.760Z,61.50
2018-12-10T08:01:04.153Z,62.00
2018-12-10T08:06:07.468Z,62.10
2018-12-10T08:11:10.829Z,61.90
2018-12-10T08:16:14.078Z,62.10
2018-12-10T08:21:18.352Z,61.70
2018-12-10T08:26:21.573Z,61.80
2018-12-10T08:31:24.791Z,61.70
2018-12-10T08:36:28.045Z,62.00
2018-12-10T08:41:31.384Z,61.90
2018-12-10T08:46:35.048Z,61.80
2018-12-10T08:51:38.268Z,61.90
2018-12-10T08:56:41.536Z,62.00
2018-12-10T09:01:44.803Z,62.10
2018-12-10T09:06:48.332Z,62.10
2018-12-10T09:11:51.638Z,62.00
2018-12-10T09:16:54.864Z,62.00
2018-12-10T09:21:58.444Z,62.00
2018-12-10T09:27:01.926Z,61.90
2018-12-10T09:32:05.573Z,62.00
2018-12-10T09:37:08.790Z,62.20
2018-12-10T09:42:12.095Z,61.60
2018-12-10T09:47:15.717Z,61.00
2018-12-10T09:52:19.084Z,60.40
2018-12-10T09:57:22.353Z,59.70
2018-12-10T10:02:25.738Z,58.60
2018-12-10T10:07:29.400Z,58.20
2018-12-10T10:12:32.617Z,57.80
2018-12-10T10:17:35.925Z,57.60
2018-12-10T10:22:39.197Z,57.00
2018-12-10T10:27:43.020Z,56.40
2018-12-10T10:32:46.310Z,56.00
2018-12-10T10:37:49.887Z,56.20
2018-12-10T10:42:53.168Z,56.80
2018-12-10T10:47:56.427Z,56.90
2018-12-10T10:52:59.691Z,56.80
2018-12-10T10:58:03.079Z,57.30
2018-12-10T11:03:10.525Z,54.80
2018-12-10T11:08:13.764Z,54.30
2018-12-10T11:13:17.223Z,52.90
2018-12-10T11:18:20.546Z,53.00
2018-12-10T11:23:23.816Z,53.50
2018-12-10T11:28:27.329Z,53.80
2018-12-10T11:33:30.580Z,54.00
2018-12-10T11:38:33.902Z,54.30
2018-12-10T11:43:37.161Z,54.50
2018-12-10T11:48:40.513Z,54.70
2018-12-10T11:53:44.308Z,55.00
2018-12-10T11:58:47.560Z,54.90
2018-12-10T12:03:50.820Z,54.00
2018-12-10T12:08:54.117Z,53.80
2018-12-10T12:13:58.189Z,54.10
2018-12-10T12:19:02.336Z,54.30
2018-12-10T12:24:05.876Z,54.40
2018-12-10T12:29:09.466Z,54.40
2018-12-10T12:34:13.279Z,54.60
2018-12-10T12:39:16.720Z,54.70
2018-12-10T12:44:19.899Z,54.70
2018-12-10T12:49:23.255Z,54.50
2018-12-10T12:54:26.553Z,54.30
2018-12-10T12:59:29.810Z,53.90
2018-12-10T13:04:34.465Z,53.80
2018-12-10T13:09:38.938Z,53.60
2018-12-10T13:14:42.443Z,53.20
2018-12-10T13:19:45.632Z,53.10
2018-12-10T13:24:48.832Z,53.20
2018-12-10T13:29:52.449Z,53.20
2018-12-10T13:34:55.970Z,53.10
2018-12-10T13:39:59.475Z,53.00
2018-12-10T13:45:02.937Z,53.00
2018-12-10T13:50:06.275Z,53.10
2018-12-10T13:55:10.211Z,53.00
2018-12-10T14:00:13.503Z,53.20
2018-12-10T14:05:16.977Z,53.00
2018-12-10T14:10:20.177Z,53.20
2018-12-10T14:15:23.538Z,53.10
2018-12-10T14:20:26.943Z,53.00
2018-12-10T14:25:30.184Z,53.30
2018-12-10T14:30:33.831Z,53.30
2018-12-10T14:35:37.472Z,53.40
2018-12-10T14:40:40.949Z,53.20
2018-12-10T14:45:44.222Z,53.70
2018-12-10T14:50:47.549Z,53.90
2018-12-10T14:55:50.955Z,53.60
2018-12-10T15:00:54.245Z,53.80
2018-12-10T15:05:57.531Z,53.70
2018-12-10T15:11:00.909Z,53.90
2018-12-10T15:16:04.214Z,54.10
2018-12-10T15:21:07.806Z,54.00
2018-12-10T15:26:11.334Z,53.70
2018-12-10T15:31:14.676Z,54.00
2018-12-10T15:36:17.975Z,53.80
2018-12-10T15:41:21.373Z,53.90
2018-12-10T15:46:24.734Z,53.90
2018-12-10T15:51:28.040Z,54.40
2018-12-10T15:56:31.256Z,54.20
2018-12-10T16:01:34.482Z,54.90
2018-12-10T16:06:37.768Z,54.80
2018-12-10T16:11:41.263Z,54.70
2018-12-10T16:16:44.630Z,54.60
2018-12-10T16:21:48.018Z,54.90
2018-12-10T16:26:51.381Z,54.70
2018-12-10T16:31:55.237Z,54.50
2018-12-10T16:36:58.492Z,55.00
2018-12-10T16:42:01.829Z,55.10
2018-12-10T16:47:06.119Z,55.00
2018-12-10T16:52:09.358Z,55.20
2018-12-10T16:57:12.720Z,55.00
2018-12-10T17:02:16.151Z,54.90
2018-12-10T17:07:19.392Z,54.80
2018-12-10T17:12:23.037Z,55.10
2018-12-10T17:17:26.471Z,55.00
2018-12-10T17:22:30.093Z,55.00
2018-12-10T17:27:33.361Z,55.20
2018-12-10T17:32:36.690Z,55.50
2018-12-10T17:37:39.974Z,54.90
2018-12-10T17:47:52.896Z,55.00
2018-12-10T17:52:56.238Z,55.10
2018-12-10T17:57:59.602Z,55.00
2018-12-10T18:03:03.012Z,55.50
2018-12-10T18:08:06.290Z,55.70
2018-12-10T18:13:09.692Z,55.50
2018-12-10T18:18:13.153Z,55.70
2018-12-10T18:23:16.516Z,55.20
2018-12-10T18:28:19.814Z,55.50
2018-12-10T18:33:23.072Z,55.60
2018-12-10T18:38:26.558Z,55.70
2018-12-10T18:43:29.848Z,55.70
2018-12-10T18:48:33.127Z,55.50
2018-12-10T18:53:36.631Z,55.40
2018-12-10T18:58:39.901Z,55.40
2018-12-10T19:03:43.172Z,55.30
2018-12-10T19:08:48.360Z,55.00
2018-12-10T19:13:51.653Z,56.10
2018-12-10T19:18:54.967Z,55.90
2018-12-10T19:23:58.245Z,55.30
2018-12-10T19:29:01.521Z,54.70
2018-12-10T19:34:04.731Z,55.50
2018-12-10T19:39:07.958Z,55.20
2018-12-10T19:44:11.223Z,55.20
2018-12-10T19:49:14.711Z,55.30
2018-12-10T19:54:17.992Z,55.60
2018-12-10T19:59:21.437Z,55.50
2018-12-10T20:04:24.725Z,55.60
2018-12-10T20:09:28.407Z,55.30
2018-12-10T20:14:31.782Z,55.90
2018-12-10T20:19:35.206Z,55.20
2018-12-10T20:24:38.546Z,55.10
2018-12-10T20:29:41.932Z,55.00
2018-12-10T20:34:45.476Z,54.70
2018-12-10T20:39:48.813Z,55.10
2018-12-10T20:44:52.475Z,55.20
2018-12-10T20:49:56.024Z,55.30
2018-12-10T20:54:59.713Z,55.20
2018-12-10T21:00:03.183Z,55.80
2018-12-10T21:05:06.689Z,56.10
2018-12-10T21:10:10.018Z,55.50
2018-12-10T21:15:13.380Z,56.30
2018-12-10T21:20:16.794Z,56.30
2018-12-10T21:25:26.770Z,56.10
2018-12-10T21:30:30.142Z,56.00
2018-12-10T21:35:33.521Z,56.00
2018-12-10T21:40:37.015Z,56.10
2018-12-10T21:45:40.351Z,56.50
2018-12-10T21:50:43.940Z,56.20
2018-12-10T21:55:47.215Z,56.30
2018-12-10T22:00:50.512Z,56.20
2018-12-10T22:05:54.127Z,56.30
2018-12-10T22:10:57.458Z,56.10
2018-12-10T22:16:00.842Z,56.00
2018-12-10T22:21:04.140Z,56.80
2018-12-10T22:26:07.483Z,55.90
2018-12-10T22:31:10.826Z,56.20
2018-12-10T22:36:14.176Z,56.30
2018-12-10T22:41:17.514Z,55.90
2018-12-10T22:46:20.802Z,56.10
2018-12-10T22:51:24.156Z,56.00
2018-12-10T22:56:27.542Z,56.30
2018-12-10T23:01:30.823Z,56.50
2018-12-10T23:06:34.233Z,56.20
2018-12-10T23:11:37.566Z,56.20
2018-12-10T23:16:41.114Z,56.40
2018-12-10T23:21:44.374Z,56.20
2018-12-10T23:26:48.099Z,56.50
2018-12-10T23:31:51.611Z,56.20
2018-12-10T23:36:54.926Z,56.30
2018-12-10T23:41:58.359Z,56.20
2018-12-10T23:47:01.583Z,56.30
2018-12-10T23:52:04.855Z,56.40
2018-12-10T23:57:08.094Z,56.10
